createdAt,value
2017-09-16T00:01:07.901Z,8.07
2017-09-16T00:03:34.159Z,7.00
2017-09-16T00:06:00.472Z,7.83
2017-09-16T00:08:26.785Z,7.90
2017-09-16T00:10:53.151Z,9.10
2017-09-16T00:13:19.433Z,7.60
2017-09-16T00:15:46.498Z,8.57
2017-09-16T00:18:12.855Z,9.37
2017-09-16T00:20:39.185Z,8.40
2017-09-16T00:23:05.452Z,9.30
2017-09-16T00:25:32.491Z,10.30
2017-09-16T00:27:58.796Z,9.50
2017-09-16T00:30:25.237Z,10.07
2017-09-16T00:32:51.524Z,8.00
2017-09-16T00:35:17.834Z,9.10
2017-09-16T00:37:44.884Z,8.10
2017-09-16T00:40:11.935Z,9.37
2017-09-16T00:42:38.983Z,8.43
2017-09-16T00:45:06.015Z,8.40
2017-09-16T00:47:32.390Z,9.00
2017-09-16T00:49:58.677Z,10.20
2017-09-16T00:52:24.975Z,9.87
2017-09-16T00:54:51.288Z,10.43
2017-09-16T00:57:17.582Z,9.23
2017-09-16T00:59:44.624Z,9.90
2017-09-16T01:02:11.834Z,10.13
2017-09-16T01:04:38.982Z,10.00
2017-09-16T01:07:05.321Z,10.17
2017-09-16T01:09:32.396Z,10.70
2017-09-16T01:11:59.499Z,10.70
2017-09-16T01:14:25.800Z,9.70
2017-09-16T01:16:52.140Z,9.23
2017-09-16T01:19:18.411Z,9.13
2017-09-16T01:21:44.701Z,9.37
2017-09-16T01:24:11.005Z,8.67
2017-09-16T01:26:38.044Z,9.37
2017-09-16T01:29:05.125Z,10.83
2017-09-16T01:31:31.524Z,10.47
2017-09-16T01:33:58.611Z,10.60
2017-09-16T01:36:24.951Z,9.90
2017-09-16T01:38:51.289Z,10.60
2017-09-16T01:41:17.639Z,10.20
2017-09-16T01:43:43.961Z,11.13
2017-09-16T01:46:10.252Z,10.53
2017-09-16T01:48:36.544Z,9.30
2017-09-16T01:51:03.621Z,11.27
2017-09-16T01:53:29.921Z,9.93
2017-09-16T01:55:56.955Z,9.37
2017-09-16T01:58:23.304Z,10.87
2017-09-16T02:00:50.363Z,11.67
2017-09-16T02:03:17.469Z,10.47
2017-09-16T02:05:43.859Z,10.13
2017-09-16T02:08:10.209Z,10.37
2017-09-16T02:10:36.532Z,10.33
2017-09-16T02:13:02.860Z,9.90
2017-09-16T02:15:29.476Z,9.57
2017-09-16T02:17:56.558Z,9.60
2017-09-16T02:20:23.072Z,10.40
2017-09-16T02:22:49.370Z,9.23
2017-09-16T02:25:16.473Z,10.20
2017-09-16T02:27:49.745Z,10.23
2017-09-16T02:30:16.096Z,10.23
2017-09-16T02:32:42.416Z,10.00
2017-09-16T02:35:08.687Z,8.60
2017-09-16T02:37:35.008Z,10.17
2017-09-16T02:40:01.345Z,10.83
2017-09-16T02:42:27.697Z,9.20
2017-09-16T02:44:53.979Z,10.20
2017-09-16T02:47:20.308Z,10.87
2017-09-16T02:49:46.594Z,9.30
2017-09-16T02:52:13.638Z,11.33
2017-09-16T02:54:40.680Z,13.80
2017-09-16T02:57:07.760Z,12.80
2017-09-16T02:59:34.060Z,13.23
2017-09-16T03:02:00.663Z,12.57
2017-09-16T03:04:26.972Z,11.00
2017-09-16T03:06:53.328Z,12.20
2017-09-16T03:09:19.679Z,11.20
2017-09-16T03:11:46.020Z,12.80
2017-09-16T03:14:13.151Z,15.10
2017-09-16T03:16:39.500Z,17.87
2017-09-16T03:19:06.593Z,20.90
2017-09-16T03:21:32.854Z,22.37
2017-09-16T03:23:59.151Z,22.47
2017-09-16T03:26:25.499Z,21.73
2017-09-16T03:28:51.812Z,18.40
2017-09-16T03:31:18.132Z,18.13
2017-09-16T03:33:44.548Z,17.70
2017-09-16T03:36:10.859Z,16.20
2017-09-16T03:38:37.912Z,16.10
2017-09-16T03:41:04.989Z,14.40
2017-09-16T03:43:31.269Z,13.40
2017-09-16T03:45:57.661Z,13.93
2017-09-16T03:48:24.000Z,13.00
2017-09-16T03:50:50.380Z,13.47
2017-09-16T03:53:17.416Z,12.63
2017-09-16T03:55:43.832Z,15.70
2017-09-16T03:58:10.205Z,15.73
2017-09-16T04:00:36.507Z,15.87
2017-09-16T04:03:02.828Z,14.90
2017-09-16T04:05:29.901Z,18.70
2017-09-16T04:07:56.939Z,16.30
2017-09-16T04:10:23.982Z,17.27
2017-09-16T04:12:50.272Z,16.30
2017-09-16T04:15:16.585Z,17.90
2017-09-16T04:17:42.877Z,14.53
2017-09-16T04:20:09.960Z,13.90
2017-09-16T04:22:36.488Z,14.73
2017-09-16T04:25:02.832Z,13.13
2017-09-16T04:27:29.157Z,13.50
2017-09-16T04:29:55.500Z,13.10
2017-09-16T04:32:21.774Z,12.97
2017-09-16T04:34:48.059Z,11.70
2017-09-16T04:37:14.364Z,12.37
2017-09-16T04:39:40.913Z,13.20
2017-09-16T04:42:07.280Z,12.90
2017-09-16T04:44:33.589Z,12.93
2017-09-16T04:46:59.906Z,15.77
2017-09-16T04:49:26.212Z,16.23
2017-09-16T04:51:52.520Z,17.33
2017-09-16T04:54:19.703Z,16.30
2017-09-16T04:56:45.999Z,17.30
2017-09-16T04:59:12.387Z,16.43
2017-09-16T05:01:38.686Z,16.00
2017-09-16T05:04:05.000Z,16.93
2017-09-16T05:06:32.111Z,17.97
2017-09-16T05:08:58.404Z,17.40
2017-09-16T05:11:24.696Z,18.97
2017-09-16T05:13:50.992Z,15.97
2017-09-16T05:16:17.376Z,17.77
2017-09-16T05:18:44.400Z,15.67
2017-09-16T05:21:10.668Z,18.17
2017-09-16T05:23:37.207Z,17.87
2017-09-16T05:26:03.688Z,17.77
2017-09-16T05:28:30.036Z,16.77
2017-09-16T05:30:57.117Z,19.50
2017-09-16T05:33:23.436Z,18.23
2017-09-16T05:35:49.732Z,19.10
2017-09-16T05:38:16.049Z,17.30
2017-09-16T05:40:42.408Z,17.67
2017-09-16T05:43:09.504Z,15.40
2017-09-16T05:45:35.835Z,14.60
2017-09-16T05:48:02.128Z,16.17
2017-09-16T05:50:29.235Z,17.40
2017-09-16T05:52:55.591Z,20.83
2017-09-16T05:55:21.984Z,21.50
2017-09-16T05:57:48.328Z,17.00
2017-09-16T06:00:14.624Z,17.40
2017-09-16T06:02:40.954Z,19.30
2017-09-16T06:05:07.281Z,17.60
2017-09-16T06:07:33.911Z,16.07
2017-09-16T06:10:00.239Z,17.13
2017-09-16T06:12:26.575Z,17.03
2017-09-16T06:14:52.917Z,16.37
2017-09-16T06:17:19.188Z,16.63
2017-09-16T06:19:45.519Z,16.60
2017-09-16T06:22:11.848Z,19.93
2017-09-16T06:24:38.184Z,15.83
2017-09-16T06:27:04.468Z,15.93
2017-09-16T06:29:30.820Z,14.13
2017-09-16T06:31:57.193Z,13.43
2017-09-16T06:34:24.248Z,14.10
2017-09-16T06:36:50.569Z,15.13
2017-09-16T06:39:16.916Z,13.60
2017-09-16T06:41:43.252Z,15.27
2017-09-16T06:44:09.784Z,14.33
2017-09-16T06:46:36.317Z,13.43
2017-09-16T06:49:02.625Z,13.33
2017-09-16T06:51:29.981Z,12.23
2017-09-16T06:53:57.042Z,12.60
2017-09-16T06:56:24.100Z,13.43
2017-09-16T06:58:50.421Z,13.23
2017-09-16T07:01:17.452Z,12.47
2017-09-16T07:03:44.477Z,13.43
2017-09-16T07:06:12.044Z,12.70
2017-09-16T07:08:39.212Z,13.00
2017-09-16T07:11:06.424Z,12.60
2017-09-16T07:13:32.728Z,11.03
2017-09-16T07:15:59.069Z,11.70
2017-09-16T07:18:25.357Z,11.93
2017-09-16T07:20:52.506Z,11.50
2017-09-16T07:23:19.652Z,12.23
2017-09-16T07:25:46.703Z,10.60
2017-09-16T07:28:13.904Z,11.10
2017-09-16T07:30:40.238Z,11.03
2017-09-16T07:33:06.584Z,11.83
2017-09-16T07:35:32.905Z,11.10
2017-09-16T07:37:59.241Z,10.93
2017-09-16T07:40:25.510Z,10.60
2017-09-16T07:42:52.616Z,12.37
2017-09-16T07:45:18.956Z,10.97
2017-09-16T07:47:45.260Z,11.17
2017-09-16T07:50:11.752Z,12.53
2017-09-16T07:52:38.768Z,10.77
2017-09-16T07:55:05.106Z,10.60
2017-09-16T07:57:32.204Z,11.20
2017-09-16T07:59:58.567Z,10.40
2017-09-16T08:02:24.899Z,10.40
2017-09-16T08:04:51.209Z,10.47
2017-09-16T08:07:17.552Z,10.07
2017-09-16T08:09:43.848Z,8.20
2017-09-16T08:12:10.258Z,7.87
2017-09-16T08:14:36.611Z,7.43
2017-09-16T08:17:02.935Z,6.90
2017-09-16T08:19:29.245Z,7.20
2017-09-16T08:21:56.284Z,8.00
2017-09-16T08:24:23.476Z,9.03
2017-09-16T08:26:49.817Z,6.30
2017-09-16T08:29:16.193Z,6.03
2017-09-16T08:31:42.494Z,6.90
2017-09-16T08:34:08.825Z,6.13
2017-09-16T08:36:35.103Z,6.27
2017-09-16T08:39:02.177Z,6.47
2017-09-16T08:41:28.500Z,6.80
2017-09-16T08:43:54.822Z,5.70
2017-09-16T08:46:21.135Z,5.90
2017-09-16T08:48:48.157Z,5.27
2017-09-16T08:51:14.492Z,5.43
2017-09-16T08:53:40.812Z,6.27
2017-09-16T08:56:07.120Z,6.13
2017-09-16T08:58:33.451Z,6.17
2017-09-16T09:00:59.793Z,6.83
2017-09-16T09:03:26.100Z,6.53
2017-09-16T09:05:52.405Z,6.40
2017-09-16T09:08:18.731Z,6.00
2017-09-16T09:10:45.777Z,5.43
2017-09-16T09:13:12.109Z,5.50
2017-09-16T09:15:38.474Z,7.67
2017-09-16T09:18:04.751Z,5.83
2017-09-16T09:20:31.099Z,5.87
2017-09-16T09:22:58.176Z,6.27
2017-09-16T09:25:24.484Z,6.93
2017-09-16T09:27:50.793Z,7.10
2017-09-16T09:30:17.880Z,6.90
2017-09-16T09:32:44.216Z,7.50
2017-09-16T09:35:10.528Z,6.53
2017-09-16T09:37:36.852Z,7.37
2017-09-16T09:40:03.165Z,7.23
2017-09-16T09:42:30.361Z,7.37
2017-09-16T09:44:56.689Z,7.03
2017-09-16T09:47:23.007Z,6.57
2017-09-16T09:49:49.350Z,7.23
2017-09-16T09:52:15.665Z,6.60
2017-09-16T09:54:41.960Z,5.87
2017-09-16T09:57:09.233Z,5.70
2017-09-16T09:59:35.544Z,5.83
2017-09-16T10:02:02.600Z,5.97
2017-09-16T10:04:29.664Z,6.33
2017-09-16T10:06:55.975Z,6.13
2017-09-16T10:09:22.284Z,5.30
2017-09-16T10:11:50.126Z,5.60
2017-09-16T10:14:16.459Z,6.20
2017-09-16T10:16:42.759Z,5.13
2017-09-16T10:19:09.073Z,5.30
2017-09-16T10:21:35.436Z,5.10
2017-09-16T10:24:01.859Z,6.23
2017-09-16T10:26:28.328Z,5.07
2017-09-16T10:28:54.868Z,5.07
2017-09-16T10:31:21.152Z,6.70
2017-09-16T10:33:47.475Z,5.30
2017-09-16T10:36:13.808Z,5.27
2017-09-16T10:38:40.141Z,4.57
2017-09-16T10:41:06.432Z,4.50
2017-09-16T10:43:32.757Z,5.50
2017-09-16T10:46:00.666Z,5.17
2017-09-16T10:48:27.014Z,5.27
2017-09-16T10:50:53.335Z,5.17
2017-09-16T10:53:19.841Z,4.60
2017-09-16T10:55:46.874Z,4.20
2017-09-16T10:58:13.946Z,5.00
2017-09-16T11:00:40.272Z,4.60
2017-09-16T11:03:06.616Z,4.30
2017-09-16T11:05:32.937Z,4.17
2017-09-16T11:07:59.372Z,3.30
2017-09-16T11:10:25.741Z,2.97
2017-09-16T11:12:52.048Z,3.20
2017-09-16T11:15:18.371Z,3.40
2017-09-16T11:17:44.660Z,2.20
2017-09-16T11:20:11.773Z,2.10
2017-09-16T11:22:38.203Z,2.57
2017-09-16T11:25:04.547Z,2.10
2017-09-16T11:27:30.844Z,2.27
2017-09-16T11:29:57.196Z,1.97
2017-09-16T11:32:23.566Z,1.87
2017-09-16T11:34:49.909Z,2.20
2017-09-16T11:37:16.973Z,1.90
2017-09-16T11:39:43.341Z,1.90
2017-09-16T11:42:09.653Z,1.70
2017-09-16T11:44:35.977Z,3.17
2017-09-16T11:47:02.296Z,1.40
2017-09-16T11:49:28.638Z,1.67
2017-09-16T11:51:54.950Z,1.50
2017-09-16T11:54:21.336Z,1.80
2017-09-16T11:56:47.700Z,1.60
2017-09-16T11:59:14.736Z,1.43
2017-09-16T12:01:41.801Z,1.53
2017-09-16T12:04:08.820Z,1.50
2017-09-16T12:06:35.106Z,1.40
2017-09-16T12:09:01.436Z,1.50
2017-09-16T12:11:27.744Z,1.60
2017-09-16T12:13:54.093Z,1.83
2017-09-16T12:16:20.425Z,1.70
2017-09-16T12:18:46.824Z,1.87
2017-09-16T12:21:13.853Z,1.50
2017-09-16T12:23:40.202Z,1.43
2017-09-16T12:26:07.308Z,1.20
2017-09-16T12:28:33.770Z,1.30
2017-09-16T12:31:00.109Z,1.40
2017-09-16T12:33:27.149Z,1.50
2017-09-16T12:35:53.453Z,1.50
2017-09-16T12:38:19.799Z,1.53
2017-09-16T12:40:46.375Z,1.40
2017-09-16T12:43:12.622Z,1.70
2017-09-16T12:45:38.940Z,1.20
2017-09-16T12:48:05.238Z,1.93
2017-09-16T12:50:32.272Z,1.37
2017-09-16T12:52:59.373Z,1.80
2017-09-16T12:55:25.680Z,1.50
2017-09-16T12:57:52.762Z,1.40
2017-09-16T13:00:19.838Z,1.40
2017-09-16T13:02:46.245Z,1.63
2017-09-16T13:05:12.600Z,1.63
2017-09-16T13:07:38.925Z,1.30
2017-09-16T13:10:05.249Z,0.97
2017-09-16T13:12:31.644Z,1.10
2017-09-16T13:14:58.080Z,1.13
2017-09-16T13:17:24.393Z,1.73
2017-09-16T13:19:51.479Z,1.37
2017-09-16T13:22:24.772Z,1.77
2017-09-16T13:24:51.128Z,1.40
2017-09-16T13:27:17.629Z,1.30
2017-09-16T13:29:44.016Z,1.30
2017-09-16T13:32:10.312Z,1.20
2017-09-16T13:34:36.609Z,1.20
2017-09-16T13:37:02.981Z,1.40
2017-09-16T13:39:29.299Z,1.60
2017-09-16T13:41:55.681Z,1.90
2017-09-16T13:44:22.779Z,1.40
2017-09-16T13:46:49.258Z,1.40
2017-09-16T13:49:16.421Z,1.73
2017-09-16T13:51:43.028Z,2.03
2017-09-16T13:54:09.349Z,1.53
2017-09-16T13:56:36.407Z,1.87
2017-09-16T13:59:02.795Z,1.50
2017-09-16T14:01:29.088Z,0.90
2017-09-16T14:03:56.133Z,1.00
2017-09-16T14:06:23.201Z,1.10
2017-09-16T14:08:49.481Z,1.30
2017-09-16T14:11:15.844Z,1.40
2017-09-16T14:13:42.904Z,1.40
2017-09-16T14:16:09.252Z,2.03
2017-09-16T14:18:35.596Z,1.53
2017-09-16T14:21:01.938Z,1.60
2017-09-16T14:23:28.277Z,2.10
2017-09-16T14:25:54.599Z,1.67
2017-09-16T14:28:20.951Z,2.23
2017-09-16T14:30:48.731Z,1.90
2017-09-16T14:33:16.009Z,1.90
2017-09-16T14:35:42.284Z,1.50
2017-09-16T14:38:09.360Z,1.40
2017-09-16T14:40:36.438Z,1.40
2017-09-16T14:43:02.746Z,1.60
2017-09-16T14:45:29.812Z,2.07
2017-09-16T14:47:56.172Z,1.90
2017-09-16T14:50:22.549Z,1.40
2017-09-16T14:52:49.581Z,1.37
2017-09-16T14:55:16.611Z,1.70
2017-09-16T14:57:42.944Z,1.83
2017-09-16T15:00:09.254Z,1.93
2017-09-16T15:02:35.614Z,2.00
2017-09-16T15:05:01.939Z,2.00
2017-09-16T15:07:28.272Z,1.70
2017-09-16T15:09:54.617Z,1.70
2017-09-16T15:12:20.957Z,1.57
2017-09-16T15:14:48.044Z,1.90
2017-09-16T15:17:14.501Z,1.83
2017-09-16T15:19:40.845Z,1.70
2017-09-16T15:22:07.235Z,1.70
2017-09-16T15:24:33.564Z,1.67
2017-09-16T15:26:59.916Z,1.80
2017-09-16T15:29:26.252Z,1.70
2017-09-16T15:31:52.608Z,1.80
2017-09-16T15:34:18.967Z,1.80
2017-09-16T15:36:46.018Z,1.70
2017-09-16T15:39:13.181Z,1.83
2017-09-16T15:41:39.505Z,2.37
2017-09-16T15:44:05.807Z,2.20
2017-09-16T15:46:32.908Z,2.30
2017-09-16T15:48:59.254Z,2.47
2017-09-16T15:51:25.524Z,2.40
2017-09-16T15:53:52.012Z,2.50
2017-09-16T15:56:18.340Z,2.77
2017-09-16T15:58:44.676Z,2.10
2017-09-16T16:01:11.123Z,2.77
2017-09-16T16:03:37.465Z,2.40
2017-09-16T16:06:03.816Z,2.17
2017-09-16T16:08:31.033Z,2.50
2017-09-16T16:10:57.399Z,2.30
2017-09-16T16:13:24.488Z,2.10
2017-09-16T16:15:50.782Z,1.80
2017-09-16T16:18:17.927Z,1.93
2017-09-16T16:20:44.953Z,2.10
2017-09-16T16:23:11.297Z,2.17
2017-09-16T16:25:38.482Z,2.00
2017-09-16T16:28:04.831Z,1.87
2017-09-16T16:30:31.161Z,1.40
2017-09-16T16:32:58.416Z,2.10
2017-09-16T16:35:24.896Z,2.20
2017-09-16T16:37:52.477Z,1.93
2017-09-16T16:40:18.839Z,2.27
2017-09-16T16:42:45.155Z,1.70
2017-09-16T16:45:11.542Z,1.70
2017-09-16T16:47:38.598Z,1.97
2017-09-16T16:50:04.969Z,1.97
2017-09-16T16:52:31.313Z,2.03
2017-09-16T16:54:57.628Z,1.80
2017-09-16T16:57:23.957Z,1.70
2017-09-16T16:59:50.320Z,2.10
2017-09-16T17:02:16.645Z,2.17
2017-09-16T17:04:43.078Z,1.80
2017-09-16T17:07:09.464Z,2.00
2017-09-16T17:09:35.805Z,2.27
2017-09-16T17:12:03.470Z,2.13
2017-09-16T17:14:29.897Z,2.30
2017-09-16T17:16:56.321Z,2.50
2017-09-16T17:19:22.599Z,2.33
2017-09-16T17:21:48.888Z,1.93
2017-09-16T17:24:15.378Z,2.40
2017-09-16T17:26:41.660Z,2.23
2017-09-16T17:29:09.650Z,2.50
2017-09-16T17:31:35.997Z,3.00
2017-09-16T17:34:02.620Z,3.20
2017-09-16T17:36:28.936Z,2.47
2017-09-16T17:38:55.209Z,3.13
2017-09-16T17:41:23.672Z,3.33
2017-09-16T17:43:50.006Z,3.47
2017-09-16T17:46:16.549Z,3.03
2017-09-16T17:48:42.852Z,3.60
2017-09-16T17:51:09.193Z,3.47
2017-09-16T17:53:35.557Z,3.27
2017-09-16T17:56:02.796Z,3.67
2017-09-16T17:58:29.099Z,4.00
2017-09-16T18:00:55.399Z,4.40
2017-09-16T18:03:21.793Z,4.20
2017-09-16T18:05:48.140Z,4.07
2017-09-16T18:08:15.240Z,4.53
2017-09-16T18:10:41.564Z,5.10
2017-09-16T18:13:08.258Z,5.20
2017-09-16T18:15:34.636Z,3.97
2017-09-16T18:18:00.958Z,5.80
2017-09-16T18:20:27.273Z,5.33
2017-09-16T18:22:53.572Z,5.60
2017-09-16T18:25:20.762Z,6.00
2017-09-16T18:27:47.100Z,5.60
2017-09-16T18:30:13.430Z,5.80
2017-09-16T18:32:39.774Z,6.20
2017-09-16T18:35:06.105Z,5.33
2017-09-16T18:37:32.432Z,6.57
2017-09-16T18:39:58.796Z,6.13
2017-09-16T18:42:25.141Z,10.40
2017-09-16T18:44:52.173Z,8.80
2017-09-16T18:47:19.243Z,9.30
2017-09-16T18:49:45.632Z,9.03
2017-09-16T18:52:11.995Z,8.60
2017-09-16T18:54:39.089Z,9.47
2017-09-16T18:57:05.425Z,8.97
2017-09-16T18:59:31.784Z,8.30
2017-09-16T19:01:58.140Z,6.80
2017-09-16T19:04:25.233Z,6.20
2017-09-16T19:06:51.554Z,5.97
2017-09-16T19:09:18.094Z,5.20
2017-09-16T19:11:44.472Z,5.87
2017-09-16T19:14:11.771Z,5.27
2017-09-16T19:16:38.114Z,6.17
2017-09-16T19:19:04.468Z,5.47
2017-09-16T19:21:30.820Z,5.10
2017-09-16T19:23:57.891Z,4.70
2017-09-16T19:26:24.204Z,4.93
2017-09-16T19:28:51.265Z,4.57
2017-09-16T19:31:17.644Z,4.47
2017-09-16T19:33:43.949Z,4.23
2017-09-16T19:36:10.260Z,4.33
2017-09-16T19:38:36.560Z,3.53
2017-09-16T19:41:03.704Z,3.70
2017-09-16T19:43:31.543Z,3.30
2017-09-16T19:45:57.916Z,3.50
2017-09-16T19:48:24.983Z,4.40
2017-09-16T19:50:51.342Z,3.27
2017-09-16T19:53:17.916Z,4.00
2017-09-16T19:55:44.265Z,4.00
2017-09-16T19:58:11.394Z,3.63
2017-09-16T20:00:37.733Z,3.17
2017-09-16T20:03:04.824Z,3.70
2017-09-16T20:05:31.165Z,4.30
2017-09-16T20:07:57.497Z,3.70
2017-09-16T20:10:23.857Z,3.47
2017-09-16T20:12:50.174Z,3.70
2017-09-16T20:15:16.500Z,3.47
2017-09-16T20:17:42.822Z,3.70
2017-09-16T20:20:09.201Z,3.50
2017-09-16T20:22:36.304Z,3.83
2017-09-16T20:25:02.652Z,4.13
2017-09-16T20:27:28.977Z,4.00
2017-09-16T20:29:55.310Z,3.60
2017-09-16T20:32:21.650Z,4.03
2017-09-16T20:34:48.016Z,4.20
2017-09-16T20:37:14.369Z,4.10
2017-09-16T20:39:40.697Z,3.77
2017-09-16T20:42:07.052Z,3.90
2017-09-16T20:44:33.385Z,4.33
2017-09-16T20:46:59.702Z,4.80
2017-09-16T20:49:26.060Z,4.20
2017-09-16T20:51:52.375Z,5.90
2017-09-16T20:54:18.786Z,4.33
2017-09-16T20:56:45.149Z,4.73
2017-09-16T20:59:11.568Z,4.57
2017-09-16T21:01:37.969Z,5.43
2017-09-16T21:04:04.367Z,5.13
2017-09-16T21:06:30.728Z,4.80
2017-09-16T21:08:57.080Z,5.40
2017-09-16T21:11:23.601Z,5.50
2017-09-16T21:13:49.969Z,5.90
2017-09-16T21:16:16.312Z,5.67
2017-09-16T21:18:42.717Z,5.27
2017-09-16T21:21:09.307Z,5.97
2017-09-16T21:23:35.761Z,6.10
2017-09-16T21:26:02.108Z,7.23
2017-09-16T21:28:28.599Z,6.90
2017-09-16T21:30:55.637Z,7.03
2017-09-16T21:33:22.726Z,6.27
2017-09-16T21:35:49.009Z,6.33
2017-09-16T21:38:15.375Z,5.77
2017-09-16T21:40:42.589Z,6.47
2017-09-16T21:43:08.974Z,6.40
2017-09-16T21:45:35.340Z,7.17
2017-09-16T21:48:01.685Z,8.30
2017-09-16T21:50:28.013Z,7.87
2017-09-16T21:52:55.104Z,8.30
2017-09-16T21:55:21.460Z,8.17
2017-09-16T21:57:47.752Z,7.57
2017-09-16T22:00:14.841Z,7.70
2017-09-16T22:02:41.168Z,7.17
2017-09-16T22:05:07.460Z,8.30
2017-09-16T22:07:34.492Z,8.10
2017-09-16T22:10:01.572Z,8.80
2017-09-16T22:12:27.923Z,8.27
2017-09-16T22:14:54.251Z,7.27
2017-09-16T22:17:20.570Z,7.60
2017-09-16T22:19:46.910Z,6.20
2017-09-16T22:22:13.208Z,7.20
2017-09-16T22:24:40.251Z,7.17
2017-09-16T22:27:07.305Z,7.17
2017-09-16T22:29:33.618Z,6.83
2017-09-16T22:32:00.956Z,7.37
2017-09-16T22:34:27.284Z,7.27
2017-09-16T22:36:53.598Z,7.13
2017-09-16T22:39:19.936Z,7.00
2017-09-16T22:41:46.242Z,7.37
2017-09-16T22:44:12.708Z,7.47
2017-09-16T22:46:39.033Z,6.73
2017-09-16T22:49:05.331Z,7.23
2017-09-16T22:51:31.704Z,6.70
2017-09-16T22:53:58.040Z,7.23
2017-09-16T22:56:24.373Z,7.30
2017-09-16T22:58:51.433Z,7.43
2017-09-16T23:01:18.516Z,8.03
2017-09-16T23:03:44.856Z,7.50
2017-09-16T23:06:11.144Z,7.57
2017-09-16T23:08:38.193Z,7.90
2017-09-16T23:11:05.237Z,7.03
2017-09-16T23:13:32.312Z,7.47
2017-09-16T23:15:58.624Z,8.60
2017-09-16T23:18:24.965Z,7.50
2017-09-16T23:20:51.408Z,7.87
2017-09-16T23:23:17.759Z,7.93
2017-09-16T23:25:44.092Z,7.20
2017-09-16T23:28:10.403Z,7.80
2017-09-16T23:30:36.756Z,8.10
2017-09-16T23:33:03.072Z,8.70
2017-09-16T23:35:29.381Z,8.17
2017-09-16T23:37:55.714Z,7.73
2017-09-16T23:40:22.075Z,7.80
2017-09-16T23:42:48.424Z,8.87
2017-09-16T23:45:14.756Z,8.57
2017-09-16T23:47:41.765Z,8.13
2017-09-16T23:50:08.103Z,7.80
2017-09-16T23:52:34.432Z,8.00
2017-09-16T23:55:00.772Z,9.57
2017-09-16T23:57:27.073Z,7.57
2017-09-16T23:59:53.428Z,7.50
